Accueil
METAR-TAF:

METAR-TAF

Aéroports :

Moscou-Cheremetievo, Russie

Aéroport de Moscou-Cheremetievo

latitude: 55-59N, longitude: 037-30E, altitude: 190 m

Observation

Le bulletin a été fait il y a 43 minutes, à 22:00 UTC
Vent 4 kt de sud/sud-ouest
Température 11°C
Humidité 94%
Pression 1009 hPa
Visibilité 10 km ou plus
pas de nuages en-dessous de 1500 mètres et pas de cumulonimbus.

METAR: UUEE 272200Z 21002MPS CAVOK 11/10 Q1009 R24L/CLRD62 NOSIG

Heure: 01:43 (22:43 UTC)

Prévision

Le bulletin a été fait il y a 2 heures et 43 minutes, à 20:00 UTC
Prévision valable du 27 à 21 UTC au 28 à 21 UTC
Vent 10 kt de ouest
Visibilité 10 km ou plus
Nuages épars à une hauteur de 2000 ft

TAF: UUEE 272000Z 2721/2821 26005MPS 9999 SCT020 TX22/2812Z TN10/2802Z

Observations et prévisions météorologiques de plus de 4000 aéroports (messages METAR et TAF).

Les stations disponibles sont représentées par des disques jaunes et rouges sur la carte.

Passer la souris dessus pour voir le nom de la station.

Cliquer dessus pour voir les observations et prévisions météorologiques.

Pour changer de carte: cliquez sur les boutons verts avec une croix noire pour zoomer, sur le bouton vert avec un tiret pour effectuer un zoom arrière, ou sur les flèches vertes pour les cartes adjacentes.


METAR-TAF: